createdAt,value
2024-05-09T00:02:29.650Z,99886.64
2024-05-09T00:05:18.268Z,99883.64
2024-05-09T00:08:07.109Z,99884.59
2024-05-09T00:10:55.656Z,99881.48
2024-05-09T00:13:44.093Z,99878.29
2024-05-09T00:16:32.528Z,99874.33
2024-05-09T00:19:21.387Z,99879.98
2024-05-09T00:22:09.881Z,99881.92
2024-05-09T00:24:58.661Z,99881.43
2024-05-09T00:27:47.052Z,99882.65
2024-05-09T00:30:37.069Z,99884.39
2024-05-09T00:33:26.395Z,99885.25
2024-05-09T00:36:14.978Z,99883.23
2024-05-09T00:39:03.482Z,99885.48
2024-05-09T00:41:51.839Z,99885.86
2024-05-09T00:44:40.283Z,99881.05
2024-05-09T00:47:28.950Z,99877.44
2024-05-09T00:50:22.762Z,99873.96
2024-05-09T00:53:18.963Z,99869.51
2024-05-09T00:56:08.855Z,99874.60
2024-05-09T00:58:57.426Z,99874.27
2024-05-09T01:02:51.613Z,99874.91
2024-05-09T01:05:40.582Z,99872.29
2024-05-09T01:08:29.239Z,99872.06
2024-05-09T01:11:18.329Z,99869.10
2024-05-09T01:14:06.888Z,99869.08
2024-05-09T01:16:55.477Z,99868.09
2024-05-09T01:19:44.075Z,99867.15
2024-05-09T01:22:35.713Z,99870.02
2024-05-09T01:25:24.119Z,99867.54
2024-05-09T01:28:12.672Z,99866.88
2024-05-09T01:31:01.085Z,99866.08
2024-05-09T01:33:49.692Z,99869.61
2024-05-09T01:36:38.515Z,99872.15
2024-05-09T01:39:26.874Z,99867.23
2024-05-09T01:42:17.051Z,99866.15
2024-05-09T01:45:05.703Z,99866.02
2024-05-09T01:47:54.339Z,99866.98
2024-05-09T01:50:43.725Z,99868.89
2024-05-09T01:53:32.536Z,99868.29
2024-05-09T01:56:21.172Z,99872.70
2024-05-09T01:59:10.406Z,99869.65
2024-05-09T02:01:59.441Z,99865.71
2024-05-09T02:04:48.979Z,99872.00
2024-05-09T02:07:37.423Z,99875.69
2024-05-09T02:10:31.978Z,99873.39
2024-05-09T02:13:21.489Z,99877.04
2024-05-09T02:16:12.819Z,99877.45
2024-05-09T02:19:01.292Z,99876.67
2024-05-09T02:21:49.820Z,99876.69
2024-05-09T02:24:38.168Z,99878.41
2024-05-09T02:27:26.684Z,99883.01
2024-05-09T02:30:22.716Z,99887.04
2024-05-09T02:33:18.823Z,99885.83
2024-05-09T02:36:07.672Z,99882.18
2024-05-09T02:38:56.035Z,99879.00
2024-05-09T02:41:44.447Z,99879.64
2024-05-09T02:44:32.926Z,99881.87
2024-05-09T02:47:21.603Z,99883.19
2024-05-09T02:50:13.295Z,99880.99
2024-05-09T02:53:04.617Z,99880.47
2024-05-09T02:55:52.981Z,99883.52
2024-05-09T02:58:41.365Z,99883.46
2024-05-09T03:01:29.777Z,99888.19
2024-05-09T03:04:18.728Z,99886.42
2024-05-09T03:07:07.124Z,99886.59
2024-05-09T03:09:55.516Z,99884.03
2024-05-09T03:12:44.132Z,99878.09
2024-05-09T03:15:32.996Z,99878.61
2024-05-09T03:18:21.626Z,99880.89
2024-05-09T03:21:10.484Z,99878.27
2024-05-09T03:23:59.137Z,99878.35
2024-05-09T03:26:48.812Z,99882.90
2024-05-09T03:29:37.402Z,99886.34
2024-05-09T03:32:26.009Z,99887.63
2024-05-09T03:35:14.611Z,99890.72
2024-05-09T03:38:03.243Z,99892.20
2024-05-09T03:40:51.969Z,99898.50
2024-05-09T03:43:40.382Z,99895.74
2024-05-09T03:46:28.761Z,99889.86
2024-05-09T03:49:17.782Z,99890.97
2024-05-09T03:52:06.309Z,99896.34
2024-05-09T03:54:54.939Z,99886.60
2024-05-09T03:57:43.268Z,99890.19
2024-05-09T04:00:37.731Z,99888.24
2024-05-09T04:03:28.271Z,99894.92
2024-05-09T04:06:23.603Z,99893.83
2024-05-09T04:09:12.098Z,99896.82
2024-05-09T04:12:01.023Z,99896.77
2024-05-09T04:14:49.508Z,99900.74
2024-05-09T04:17:37.972Z,99900.88
2024-05-09T04:23:17.971Z,99905.05
2024-05-09T04:26:08.452Z,99907.19
2024-05-09T04:28:57.105Z,99908.73
2024-05-09T04:31:45.564Z,99913.48
2024-05-09T04:34:35.596Z,99916.60
2024-05-09T04:37:25.357Z,99909.69
2024-05-09T04:40:24.137Z,99911.48
2024-05-09T04:43:21.103Z,99912.58
2024-05-09T04:46:09.465Z,99905.98
2024-05-09T04:48:58.142Z,99908.02
2024-05-09T04:51:46.736Z,99910.04
2024-05-09T04:54:36.619Z,99908.92
2024-05-09T04:57:25.212Z,99910.08
2024-05-09T05:00:15.012Z,99908.98
2024-05-09T05:03:14.481Z,99913.28
2024-05-09T05:06:04.532Z,99909.15
2024-05-09T05:08:53.135Z,99909.41
2024-05-09T05:11:41.745Z,99911.81
2024-05-09T05:14:30.292Z,99912.20
2024-05-09T05:17:18.962Z,99914.27
2024-05-09T05:20:08.762Z,99915.02
2024-05-09T05:22:59.278Z,99912.25
2024-05-09T05:25:50.320Z,99915.14
2024-05-09T05:28:38.749Z,99910.02
2024-05-09T05:31:27.280Z,99909.95
2024-05-09T05:34:15.891Z,99911.43
2024-05-09T05:37:04.668Z,99909.14
2024-05-09T05:39:53.050Z,99909.52
2024-05-09T05:42:43.086Z,99911.69
2024-05-09T05:45:31.514Z,99916.66
2024-05-09T05:48:20.131Z,99913.55
2024-05-09T05:51:08.686Z,99915.75
2024-05-09T05:53:57.190Z,99914.90
2024-05-09T05:56:45.950Z,99916.31
2024-05-09T05:59:34.523Z,99911.66
2024-05-09T06:02:23.155Z,99912.23
2024-05-09T06:05:11.826Z,99912.44
2024-05-09T06:08:00.656Z,99913.45
2024-05-09T06:10:49.882Z,99915.09
2024-05-09T06:13:42.779Z,99916.17
2024-05-09T06:16:31.394Z,99920.43
2024-05-09T06:19:20.084Z,99915.13
2024-05-09T06:22:10.865Z,99912.56
2024-05-09T06:24:59.265Z,99914.08
2024-05-09T06:27:47.994Z,99915.67
2024-05-09T06:30:40.152Z,99917.02
2024-05-09T06:33:30.731Z,99919.81
2024-05-09T06:36:19.636Z,99917.17
2024-05-09T06:39:10.195Z,99914.80
2024-05-09T06:41:58.651Z,99911.25
2024-05-09T06:44:47.139Z,99906.02
2024-05-09T06:47:35.886Z,99906.81
2024-05-09T06:50:28.257Z,99905.63
2024-05-09T06:53:25.768Z,99907.04
2024-05-09T06:56:14.397Z,99912.50
2024-05-09T06:59:03.295Z,99914.77
2024-05-09T07:01:52.370Z,99913.64
2024-05-09T07:04:41.038Z,99916.05
2024-05-09T07:07:30.231Z,99914.53
2024-05-09T07:10:25.746Z,99915.88
2024-05-09T07:13:20.862Z,99916.84
2024-05-09T07:16:09.357Z,99922.47
2024-05-09T07:18:58.031Z,99920.08
2024-05-09T07:21:46.554Z,99923.00
2024-05-09T07:24:36.942Z,99927.40
2024-05-09T07:27:27.845Z,99925.77
2024-05-09T07:30:23.012Z,99922.86
2024-05-09T07:33:21.514Z,99920.84
2024-05-09T07:36:11.412Z,99914.28
2024-05-09T07:39:00.686Z,99914.73
2024-05-09T07:41:49.043Z,99920.88
2024-05-09T07:44:37.426Z,99917.65
2024-05-09T07:48:56.961Z,99917.28
2024-05-09T07:52:32.406Z,99920.39
2024-05-09T07:53:49.201Z,99915.91
2024-05-09T07:56:40.795Z,99910.65
2024-05-09T07:59:29.316Z,99907.88
2024-05-09T08:02:17.844Z,99909.12
2024-05-09T08:05:06.588Z,99906.66
2024-05-09T08:07:56.160Z,99904.35
2024-05-09T08:10:44.825Z,99907.39
2024-05-09T08:13:33.709Z,99906.16
2024-05-09T08:16:22.400Z,99907.72
2024-05-09T08:19:11.073Z,99906.23
2024-05-09T08:22:01.798Z,99906.52
2024-05-09T08:24:50.960Z,99903.33
2024-05-09T08:27:40.853Z,99899.16
2024-05-09T08:30:34.111Z,99898.56
2024-05-09T08:33:25.807Z,99899.52
2024-05-09T08:36:15.318Z,99900.86
2024-05-09T08:39:04.065Z,99897.61
2024-05-09T08:41:52.491Z,99900.38
2024-05-09T08:44:41.344Z,99896.42
2024-05-09T08:47:32.811Z,99903.24
2024-05-09T08:50:29.244Z,99901.95
2024-05-09T08:53:25.291Z,99898.52
2024-05-09T08:56:16.175Z,99907.92
2024-05-09T08:59:06.735Z,99899.89
2024-05-09T09:01:55.549Z,99903.95
2024-05-09T09:05:16.738Z,99907.70
2024-05-09T09:08:08.331Z,99906.10
2024-05-09T09:10:58.729Z,99905.20
2024-05-09T09:13:47.287Z,99903.02
2024-05-09T09:16:36.961Z,99908.52
2024-05-09T09:19:25.495Z,99900.54
2024-05-09T09:22:15.126Z,99898.48
2024-05-09T09:25:03.756Z,99902.65
2024-05-09T09:27:52.279Z,99901.99
2024-05-09T09:30:41.579Z,99900.63
2024-05-09T09:33:31.386Z,99901.16
2024-05-09T09:36:20.471Z,99894.39
2024-05-09T09:39:09.665Z,99899.70
2024-05-09T09:41:59.693Z,99899.44
2024-05-09T09:45:01.612Z,99896.73
2024-05-09T09:47:56.340Z,99894.43
2024-05-09T09:50:45.505Z,99895.64
2024-05-09T09:53:34.931Z,99893.91
2024-05-09T09:56:24.900Z,99886.77
2024-05-09T09:59:14.097Z,99889.48
2024-05-09T10:02:02.697Z,99885.04
2024-05-09T10:04:51.600Z,99883.65
2024-05-09T10:07:42.996Z,99885.41
2024-05-09T10:10:34.456Z,99885.23
2024-05-09T10:13:32.850Z,99883.05
2024-05-09T10:16:24.791Z,99886.73
2024-05-09T10:19:26.546Z,99884.42
2024-05-09T10:22:30.882Z,99882.47
2024-05-09T10:25:19.463Z,99885.05
2024-05-09T10:28:11.931Z,99891.19
2024-05-09T10:31:18.538Z,99882.95
2024-05-09T10:34:07.112Z,99883.27
2024-05-09T10:36:55.864Z,99880.36
2024-05-09T10:39:44.816Z,99881.71
2024-05-09T10:42:33.975Z,99884.30
2024-05-09T10:45:24.789Z,99881.95
2024-05-09T10:48:13.230Z,99879.85
2024-05-09T10:51:02.256Z,99877.02
2024-05-09T10:53:52.350Z,99873.34
2024-05-09T10:56:41.935Z,99872.48
2024-05-09T10:59:34.561Z,99863.77
2024-05-09T11:02:24.000Z,99861.19
2024-05-09T11:05:12.733Z,99854.86
2024-05-09T11:08:01.355Z,99852.73
2024-05-09T11:10:54.119Z,99852.09
2024-05-09T11:13:42.676Z,99850.23
2024-05-09T11:16:31.097Z,99852.73
2024-05-09T11:19:20.009Z,99849.28
2024-05-09T11:22:08.810Z,99848.94
2024-05-09T11:24:57.493Z,99847.60
2024-05-09T11:27:46.002Z,99847.62
2024-05-09T11:30:35.394Z,99843.64
2024-05-09T11:33:23.912Z,99847.40
2024-05-09T11:36:12.829Z,99844.02
2024-05-09T11:39:01.246Z,99841.13
2024-05-09T11:41:49.623Z,99844.13
2024-05-09T11:44:38.001Z,99839.63
2024-05-09T11:47:26.634Z,99842.34
2024-05-09T11:50:22.571Z,99843.25
2024-05-09T11:53:17.878Z,99838.51
2024-05-09T11:56:06.524Z,99837.94
2024-05-09T11:58:54.890Z,99827.98
2024-05-09T12:01:43.708Z,99825.79
2024-05-09T12:04:32.688Z,99822.95
2024-05-09T12:07:21.652Z,99820.62
2024-05-09T12:10:16.563Z,99818.23
2024-05-09T12:13:08.501Z,99819.86
2024-05-09T12:15:57.226Z,99816.91
2024-05-09T12:18:45.964Z,99812.56
2024-05-09T12:21:34.597Z,99812.69
2024-05-09T12:24:24.815Z,99809.70
2024-05-09T12:27:13.351Z,99808.97
2024-05-09T12:30:01.807Z,99810.70
2024-05-09T12:32:50.431Z,99811.89
2024-05-09T12:35:39.219Z,99809.97
2024-05-09T12:38:27.617Z,99804.16
2024-05-09T12:41:15.970Z,99800.98
2024-05-09T12:44:04.501Z,99799.21
2024-05-09T12:46:52.839Z,99798.59
2024-05-09T12:49:41.574Z,99794.55
2024-05-09T12:52:30.241Z,99795.20
2024-05-09T12:55:18.672Z,99791.19
2024-05-09T12:58:07.683Z,99790.77
2024-05-09T13:00:56.525Z,99789.56
2024-05-09T13:03:45.103Z,99781.30
2024-05-09T13:06:33.735Z,99780.42
2024-05-09T13:09:22.240Z,99780.11
2024-05-09T13:12:10.601Z,99777.98
2024-05-09T13:14:59.027Z,99778.55
2024-05-09T13:17:47.664Z,99778.64
2024-05-09T13:20:37.085Z,99774.54
2024-05-09T13:23:25.663Z,99767.64
2024-05-09T13:26:14.096Z,99774.55
2024-05-09T13:29:02.726Z,99773.23
2024-05-09T13:31:51.155Z,99765.92
2024-05-09T13:34:39.777Z,99767.27
2024-05-09T13:37:28.477Z,99766.10
2024-05-09T13:40:26.700Z,99761.40
2024-05-09T13:43:19.129Z,99768.09
2024-05-09T13:46:07.843Z,99760.04
2024-05-09T13:48:56.405Z,99755.32
2024-05-09T13:51:45.010Z,99758.52
2024-05-09T13:54:33.632Z,99752.96
2024-05-09T13:57:22.813Z,99745.07
2024-05-09T14:00:22.930Z,99742.59
2024-05-09T14:03:21.137Z,99748.01
2024-05-09T14:06:13.021Z,99743.91
2024-05-09T14:09:04.441Z,99743.66
2024-05-09T14:11:52.852Z,99738.26
2024-05-09T14:14:41.395Z,99735.06
2024-05-09T14:17:30.016Z,99731.36
2024-05-09T14:20:28.264Z,99731.04
2024-05-09T14:23:19.975Z,99729.50
2024-05-09T14:26:08.361Z,99728.58
2024-05-09T14:28:56.936Z,99724.69
2024-05-09T14:31:45.409Z,99722.55
2024-05-09T14:34:34.412Z,99722.36
2024-05-09T14:37:22.866Z,99721.09
2024-05-09T14:40:25.965Z,99720.99
2024-05-09T14:43:19.949Z,99722.14
2024-05-09T14:46:08.842Z,99716.49
2024-05-09T14:48:59.413Z,99710.21
2024-05-09T14:51:48.326Z,99709.10
2024-05-09T14:54:36.926Z,99703.30
2024-05-09T14:57:25.468Z,99705.33
2024-05-09T15:00:21.109Z,99699.97
2024-05-09T15:03:14.920Z,99698.30
2024-05-09T15:06:04.693Z,99697.16
2024-05-09T15:08:57.472Z,99691.38
2024-05-09T15:11:47.432Z,99688.79
2024-05-09T15:14:36.587Z,99682.24
2024-05-09T15:17:25.137Z,99680.14
2024-05-09T15:20:17.318Z,99679.05
2024-05-09T15:23:09.135Z,99671.47
2024-05-09T15:25:57.670Z,99668.93
2024-05-09T15:28:46.072Z,99667.90
2024-05-09T15:31:34.653Z,99672.30
2024-05-09T15:34:23.188Z,99669.29
2024-05-09T15:37:12.886Z,99665.05
2024-05-09T15:40:01.752Z,99659.98
2024-05-09T15:42:50.580Z,99653.38
2024-05-09T15:45:40.838Z,99654.14
2024-05-09T15:48:30.079Z,99647.52
2024-05-09T15:51:18.587Z,99649.26
2024-05-09T15:54:07.095Z,99647.67
2024-05-09T15:56:55.595Z,99644.57
2024-05-09T15:59:44.074Z,99640.21
2024-05-09T16:02:34.101Z,99641.98
2024-05-09T16:05:23.135Z,99640.30
2024-05-09T16:08:13.675Z,99638.08
2024-05-09T16:11:02.762Z,99639.58
2024-05-09T16:13:51.295Z,99636.44
2024-05-09T16:16:39.956Z,99635.76
2024-05-09T16:19:28.690Z,99638.79
2024-05-09T16:22:17.243Z,99635.52
2024-05-09T16:25:06.274Z,99640.46
2024-05-09T16:27:57.509Z,99644.30
2024-05-09T16:30:45.962Z,99645.14
2024-05-09T16:33:34.629Z,99644.02
2024-05-09T16:36:23.267Z,99642.67
2024-05-09T16:39:11.671Z,99643.01
2024-05-09T16:42:00.060Z,99644.54
2024-05-09T16:44:48.475Z,99647.14
2024-05-09T16:47:36.954Z,99643.95
2024-05-09T16:50:29.634Z,99642.95
2024-05-09T16:53:21.547Z,99643.73
2024-05-09T16:56:10.187Z,99644.55
2024-05-09T16:58:58.711Z,99641.28
2024-05-09T17:01:47.329Z,99643.59
2024-05-09T17:04:35.967Z,99641.20
2024-05-09T17:07:24.432Z,99640.09
2024-05-09T17:10:22.190Z,99640.35
2024-05-09T17:13:15.287Z,99638.31
2024-05-09T17:16:04.123Z,99637.52
2024-05-09T17:18:52.672Z,99637.69
2024-05-09T17:21:41.231Z,99641.71
2024-05-09T17:24:29.759Z,99638.80
2024-05-09T17:27:18.264Z,99637.28
2024-05-09T17:30:08.114Z,99633.55
2024-05-09T17:32:59.357Z,99629.88
2024-05-09T17:35:50.160Z,99633.08
2024-05-09T17:38:38.622Z,99626.97
2024-05-09T17:41:27.052Z,99629.73
2024-05-09T17:44:15.842Z,99631.16
2024-05-09T17:47:04.761Z,99626.27
2024-05-09T17:49:53.475Z,99632.29
2024-05-09T17:52:41.984Z,99631.79
2024-05-09T17:55:31.114Z,99631.60
2024-05-09T17:58:20.925Z,99631.55
2024-05-09T18:01:09.712Z,99629.16
2024-05-09T18:03:58.377Z,99632.87
2024-05-09T18:06:47.025Z,99634.23
2024-05-09T18:09:35.491Z,99633.93
2024-05-09T18:12:23.985Z,99632.87
2024-05-09T18:15:12.403Z,99631.36
2024-05-09T18:18:01.625Z,99633.70
2024-05-09T18:20:50.224Z,99637.94
2024-05-09T18:23:38.626Z,99641.52
2024-05-09T18:26:27.302Z,99646.50
2024-05-09T18:29:19.965Z,99641.64
2024-05-09T18:32:10.178Z,99645.48
2024-05-09T18:34:58.642Z,99651.05
2024-05-09T18:37:47.217Z,99654.40
2024-05-09T18:40:37.870Z,99654.42
2024-05-09T18:43:34.741Z,99659.48
2024-05-09T18:46:27.508Z,99665.59
2024-05-09T18:49:16.298Z,99666.13
2024-05-09T18:52:05.175Z,99667.87
2024-05-09T18:54:53.595Z,99671.98
2024-05-09T18:57:42.628Z,99672.31
2024-05-09T19:00:35.967Z,99676.09
2024-05-09T19:03:27.874Z,99675.44
2024-05-09T19:06:16.713Z,99676.91
2024-05-09T19:09:05.704Z,99677.51
2024-05-09T19:11:54.221Z,99677.67
2024-05-09T19:14:42.974Z,99677.02
2024-05-09T19:17:31.679Z,99674.61
2024-05-09T19:20:28.486Z,99673.67
2024-05-09T19:23:21.744Z,99673.44
2024-05-09T19:26:11.455Z,99670.65
2024-05-09T19:29:00.428Z,99672.27
2024-05-09T19:31:48.968Z,99679.16
2024-05-09T19:34:37.844Z,99674.46
2024-05-09T19:37:29.455Z,99675.51
2024-05-09T19:40:24.834Z,99679.56
2024-05-09T19:43:19.303Z,99673.84
2024-05-09T19:46:07.986Z,99675.85
2024-05-09T19:48:57.246Z,99676.77
2024-05-09T19:51:46.092Z,99674.53
2024-05-09T19:54:34.684Z,99673.56
2024-05-09T19:57:23.142Z,99675.16
2024-05-09T20:00:17.883Z,99678.15
2024-05-09T20:03:12.443Z,99681.64
2024-05-09T20:06:01.123Z,99681.77
2024-05-09T20:08:49.582Z,99683.95
2024-05-09T20:11:38.704Z,99683.16
2024-05-09T20:14:27.356Z,99682.70
2024-05-09T20:17:15.776Z,99680.78
2024-05-09T20:20:09.153Z,99680.38
2024-05-09T20:22:59.998Z,99677.88
2024-05-09T20:25:48.355Z,99678.86
2024-05-09T20:28:37.179Z,99675.04
2024-05-09T20:31:25.732Z,99676.58
2024-05-09T20:34:14.255Z,99676.73
2024-05-09T20:37:02.803Z,99677.85
2024-05-09T20:39:51.339Z,99681.75
2024-05-09T20:42:39.759Z,99679.23
2024-05-09T20:45:28.216Z,99678.20
2024-05-09T20:48:16.812Z,99677.45
2024-05-09T20:51:05.610Z,99677.84
2024-05-09T20:53:54.049Z,99681.12
2024-05-09T20:56:43.189Z,99683.52
2024-05-09T20:59:31.664Z,99688.49
2024-05-09T21:02:20.612Z,99683.23
2024-05-09T21:05:09.718Z,99684.94
2024-05-09T21:07:58.504Z,99682.16
2024-05-09T21:10:47.614Z,99681.13
2024-05-09T21:13:36.424Z,99681.55
2024-05-09T21:16:25.265Z,99681.34
2024-05-09T21:19:13.800Z,99683.11
2024-05-09T21:22:02.291Z,99683.52
2024-05-09T21:24:50.858Z,99682.06
2024-05-09T21:27:39.405Z,99679.81
2024-05-09T21:30:37.653Z,99677.03
2024-05-09T21:33:30.323Z,99675.77
2024-05-09T21:36:18.994Z,99678.61
2024-05-09T21:39:09.415Z,99676.35
2024-05-09T21:42:01.602Z,99670.80
2024-05-09T21:44:50.103Z,99670.61
2024-05-09T21:47:38.603Z,99669.77
2024-05-09T21:50:36.063Z,99674.38
2024-05-09T21:53:28.569Z,99674.37
2024-05-09T21:56:16.999Z,99674.79
2024-05-09T21:59:05.391Z,99672.70
2024-05-09T22:01:54.045Z,99672.18
2024-05-09T22:04:42.557Z,99675.67
2024-05-09T22:07:30.953Z,99671.58
2024-05-09T22:10:25.772Z,99673.39
2024-05-09T22:13:20.115Z,99670.81
2024-05-09T22:16:08.760Z,99666.42
2024-05-09T22:18:57.697Z,99671.83
2024-05-09T22:21:46.153Z,99674.88
2024-05-09T22:24:34.894Z,99668.83
2024-05-09T22:27:24.782Z,99670.23
2024-05-09T22:30:21.231Z,99667.55
2024-05-09T22:33:16.138Z,99672.02
2024-05-09T22:36:07.280Z,99671.02
2024-05-09T22:38:55.825Z,99673.12
2024-05-09T22:41:45.403Z,99671.33
2024-05-09T22:44:33.984Z,99670.92
2024-05-09T22:47:22.472Z,99668.52
2024-05-09T22:50:16.150Z,99669.83
2024-05-09T22:53:10.669Z,99665.33
2024-05-09T22:55:59.208Z,99662.27
2024-05-09T22:58:47.565Z,99665.76
2024-05-09T23:01:36.264Z,99666.38
2024-05-09T23:04:24.754Z,99665.46
2024-05-09T23:07:13.359Z,99663.58
2024-05-09T23:10:01.919Z,99664.25
2024-05-09T23:12:50.404Z,99665.30
2024-05-09T23:15:39.211Z,99661.67
2024-05-09T23:18:28.077Z,99662.02
2024-05-09T23:21:16.604Z,99661.02
2024-05-09T23:24:05.266Z,99656.06
2024-05-09T23:26:53.699Z,99657.45
2024-05-09T23:29:42.282Z,99656.66
2024-05-09T23:32:30.695Z,99652.71
2024-05-09T23:35:19.189Z,99652.06
2024-05-09T23:38:07.640Z,99649.59
2024-05-09T23:40:56.159Z,99648.07
2024-05-09T23:43:44.572Z,99645.30
2024-05-09T23:46:32.959Z,99645.20
2024-05-09T23:49:21.383Z,99644.00
2024-05-09T23:52:09.932Z,99635.64
2024-05-09T23:54:58.332Z,99638.73
2024-05-09T23:57:46.731Z,99635.44
